Flight Track Log - Related Links

Times and Time Zones

All times are in EDT time to prevent confusion due to time zone crossing. See the SWA1377 flight status page for this flight to view local times or setup timezone preferences in your user account.

Time Position Orientation Groundspeed Altitude Reporting Facility
EDT Latitude Longitude Course Direction KTS MPH feet Rate Location/Type
Sun 10:20:57 AM 41.8044 -87.6911 90° East 169 194 3,000  Level Chicago Center
Sun 10:21:58 AM 41.8247 -87.6125 71° East 223 257 5,500 2,732 Climbing Chicago Center
Sun 10:23:00 AM 41.8458 -87.5067 75° East 299 344 8,600 3,317 Climbing Chicago Center
Sun 10:24:01 AM 41.8231 -87.3900 105° East 320 368 12,300 3,805 Climbing Chicago Center
Sun 10:25:03 AM 41.8436 -87.2419 79° East 348 400 16,400 2,468 Climbing Chicago Center
Sun 10:26:00 AM 41.7500 -86.8864 90° East  Level FlightAware Approximate
Sun 10:26:05 AM 41.8797 -87.1181 69° East 356 410 17,400  Level Chicago Center
Sun 10:27:06 AM 41.9167 -86.9878 69° East 371 427 19,900 1,902 Climbing Chicago Center
Sun 10:28:08 AM 41.9194 -86.8342 89° East 408 470 21,300 1,951 Climbing Chicago Center
Sun 10:29:09 AM 41.9236 -86.6589 88° East 425 489 23,900 2,537 Climbing Chicago Center
Sun 10:30:11 AM 41.9278 -86.4903 88° East 447 514 26,500 2,390 Climbing Chicago Center
Sun 10:31:12 AM 41.9303 -86.3194 89° East 457 526 28,800 2,146 Climbing Chicago Center
Sun 10:32:14 AM 41.9350 -86.1456 88° East 465 535 30,900 2,049 Climbing Chicago Center
Sun 10:33:15 AM 41.9389 -85.9700 88° East 470 541 33,000 1,805 Climbing Chicago Center
Sun 10:34:17 AM 41.9422 -85.7942 88° East 469 540 34,600 976 Climbing Chicago Center
Sun 10:35:18 AM 41.9453 -85.6128 89° East 480 552 35,000 195 Climbing Chicago Center
Sun 10:36:20 AM 41.9478 -85.4281 89° East 488 562 35,000  Level Chicago Center
Sun 10:37:21 AM 41.9517 -85.2450 88° East 486 559 35,000  Level Chicago Center
Sun 10:38:23 AM 41.9517 -85.0619 90° East 489 563 35,000  Level Chicago Center
Sun 10:39:23 AM 41.9528 -84.8722 89° East 480 552 35,000  Level Cleveland Center
Sun 10:40:23 AM 41.9656 -84.6914 85° East 480 552 35,000  Level Cleveland Center
Sun 10:41:23 AM 41.9889 -84.5058 80° East 487 560 35,000  Level Cleveland Center
Sun 10:42:23 AM 42.0117 -84.3200 81° East 500 575 35,000  Level Cleveland Center
Sun 10:43:23 AM 42.0328 -84.1114 82° East 500 575 35,000 -500 Level Cleveland Center
Sun 10:44:23 AM 42.0531 -83.9250 82° East 505 581 34,000 -1,200 Descending Cleveland Center
Sun 10:45:23 AM 42.0747 -83.7444 81° East 497 572 32,600 -1,450 Descending Cleveland Center
Sun 10:46:23 AM 42.0942 -83.5633 82° East 490 564 31,100 -800 Descending Cleveland Center
Sun 10:47:23 AM 42.1150 -83.3992 80° East 485 558 31,000 -50 Descending Cleveland Center
Sun 10:48:23 AM 42.1319 -83.2181 83° East 485 558 31,000  Level Cleveland Center
Sun 10:49:23 AM 42.1506 -83.0339 82° East 490 564 31,000  Level Cleveland Center
Sun 10:50:23 AM 42.1958 -82.8617 70° East 490 564 31,000  Level Cleveland Center
Sun 10:51:23 AM 42.2553 -82.6983 64° Northeast 479 551 31,000  Level Cleveland Center
Sun 10:52:23 AM 42.3122 -82.5347 65° Northeast 479 551 31,000  Level Cleveland Center
Sun 10:53:23 AM 42.3422 -82.3531 77° East 479 551 31,000  Level Cleveland Center
Sun 10:54:23 AM 42.3533 -82.1622 85° East 492 566 31,000  Level Cleveland Center
Sun 10:55:23 AM 42.3644 -81.9517 86° East 502 578 31,000  Level Cleveland Center
Sun 10:56:23 AM 42.3769 -81.7636 85° East 507 583 31,000 -750 Level Cleveland Center
Sun 10:57:23 AM 42.3872 -81.5697 86° East 507 583 29,500 -1,500 Descending Cleveland Center
Sun 10:58:23 AM 42.3969 -81.3844 86° East 501 577 28,000 -1,250 Descending Cleveland Center
Sun 10:59:23 AM 42.4064 -81.2047 86° East 488 562 27,000 -500 Descending Cleveland Center
Sun 11:00:23 AM 42.4133 -81.0472 87° East 482 555 27,000  Level Cleveland Center
Sun 11:01:23 AM 42.4222 -80.8644 86° East 477 549 27,000  Level Cleveland Center
Sun 11:02:23 AM 42.4311 -80.6872 86° East 477 549 27,000 -200 Level Cleveland Center
Sun 11:03:23 AM 42.4414 -80.5017 86° East 482 555 26,600 -1,250 Descending Cleveland Center
Sun 11:04:23 AM 42.4517 -80.3272 85° East 477 549 24,500 -2,150 Descending Cleveland Center
Sun 11:05:23 AM 42.4553 -80.1556 88° East 466 536 22,300 -2,150 Descending Cleveland Center
Sun 11:06:23 AM 42.4689 -79.9694 84° East 455 524 20,200 -2,100 Descending Cleveland Center
Sun 11:07:23 AM 42.4742 -79.8092 87° East 443 510 18,100 -2,000 Descending Cleveland Center
Sun 11:08:23 AM 42.4814 -79.6514 86° East 431 496 16,200 -2,100 Descending Cleveland Center
Sun 11:09:23 AM 42.4883 -79.4964 86° East 424 488 13,900 -1,700 Descending Cleveland Center
Sun 11:10:23 AM 42.5542 -79.3994 47° Northeast 360 414 12,800 -1,050 Descending Cleveland Center
Sun 11:11:23 AM 42.6283 -79.3133 40° Northeast 337 388 11,800 -1,000 Descending Cleveland Center
Sun 11:12:23 AM 42.7003 -79.2300 40° Northeast 337 388 10,800 -1,000 Descending Cleveland Center
Sun 11:13:23 AM 42.7661 -79.1522 41° Northeast 324 373 9,800 -1,100 Descending Cleveland Center
Sun 11:14:23 AM 42.8150 -79.0747 49° Northeast 302 348 8,600 -1,150 Descending Cleveland Center
Sun 11:15:23 AM 42.8683 -78.9942 48° Northeast 292 336 7,500 -1,300 Descending Cleveland Center
Sun 11:16:23 AM 42.9297 -78.9131 44° Northeast 276 318 6,000 -1,345 Descending Cleveland Center
Sun 11:17:19 AM 42.9833 -78.8500 41° Northeast 269 310 4,900 -776 Descending Buffalo TRACON
Sun 11:18:19 AM 43.0333 -78.7833 44° Northeast 229 264 4,500 -750 Descending Buffalo TRACON
Sun 11:19:19 AM 43.0667 -78.7167 56° Northeast 233 268 3,400 -1,000 Descending Buffalo TRACON
Sun 11:20:19 AM 43.0333 -78.6500 124° Southeast 215 247 2,500 -750 Descending Buffalo TRACON
Sun 11:21:19 AM 43.0000 -78.6500 180° South 130 150 1,900 -600 Descending Buffalo TRACON
Sun 11:22:19 AM 42.9667 -78.7000 228° Southwest 124 143 1,300 -600 Descending Buffalo TRACON

Login

Don't have an account? Register now (free) for customized features, flight alerts, and more!